Time;durP1;ratioP1;P1;durP2;ratioP2;P2;SDS_P1;SDS_P2;PMS_P1;PMS_P2;Temp;Humidity;BMP_temperature;BMP_pressure;BME280_temperature;BME280_humidity;BME280_pressure;Samples;Min_cycle;Max_cycle;Signal;HPM_P1;HPM_P2
2022/11/05 00:09:31;;;;;;;;;;;11.80;72.80;;;;;;4950956;28;19925;-79
2022/11/05 00:17:26;;;;;;;;;;;11.70;72.80;;;;;;4947403;29;19941;-79
2022/11/05 00:19:52;;;;;;;;;;;11.70;72.90;;;;;;4952645;29;20367;-80
2022/11/05 00:25:17;;;;;;;;;;;11.70;72.90;;;;;;4951442;28;19965;-79
2022/11/05 00:27:47;;;;;;;;;;;11.70;72.90;;;;;;4948276;28;19925;-79
2022/11/05 00:30:16;;;;;;;;;;;11.70;72.90;;;;;;4948299;28;19918;-79
2022/11/05 00:32:43;;;;;;;;;;;11.70;72.90;;;;;;4946739;29;19922;-79
2022/11/05 00:35:09;;;;;;;;;;;11.70;72.90;;;;;;4952789;28;20394;-79
2022/11/05 00:37:34;;;;;;;;;;;11.70;72.90;;;;;;4947687;28;19946;-80
2022/11/05 00:40:00;;;;;;;;;;;11.70;72.90;;;;;;4952103;28;19915;-79
2022/11/05 00:45:10;;;;;;;;;;;11.70;72.90;;;;;;4949989;28;20257;-79
2022/11/05 00:50:21;;;;;;;;;;;11.70;73.00;;;;;;4949642;28;19920;-79
2022/11/05 00:52:54;;;;;;;;;;;11.70;72.90;;;;;;4933447;29;19914;-79
2022/11/05 00:55:24;;;;;;;;;;;11.70;73.00;;;;;;4947511;29;19978;-79
2022/11/05 00:57:49;;;;;;;;;;;11.70;73.00;;;;;;4955988;28;19914;-79
2022/11/05 01:00:15;;;;;;;;;;;11.70;73.00;;;;;;4952412;28;19945;-80
2022/11/05 01:02:41;;;;;;;;;;;11.70;73.00;;;;;;4952541;28;19921;-79
2022/11/05 01:05:06;;;;;;;;;;;11.70;73.00;;;;;;4953864;28;19910;-78
2022/11/05 01:07:32;;;;;;;;;;;11.60;73.00;;;;;;4950824;29;19919;-80
2022/11/05 01:09:58;;;;;;;;;;;11.70;73.00;;;;;;4954087;29;19946;-80
2022/11/05 01:12:23;;;;;;;;;;;11.70;73.00;;;;;;4922934;29;19919;-79
2022/11/05 01:14:49;;;;;;;;;;;11.70;73.00;;;;;;4948886;28;20017;-79
2022/11/05 01:17:15;;;;;;;;;;;11.70;73.00;;;;;;4931546;29;19927;-80
2022/11/05 01:19:41;;;;;;;;;;;11.70;73.10;;;;;;4950965;28;20371;-80
2022/11/05 01:22:06;;;;;;;;;;;11.70;73.10;;;;;;4951184;28;19919;-79
2022/11/05 01:24:32;;;;;;;;;;;11.70;73.10;;;;;;4922999;29;19918;-79
2022/11/05 01:26:58;;;;;;;;;;;11.60;73.00;;;;;;4954576;29;19924;-79
2022/11/05 01:29:24;;;;;;;;;;;11.60;73.00;;;;;;4939683;28;19915;-79
2022/11/05 01:31:49;;;;;;;;;;;11.60;73.00;;;;;;4952064;28;19919;-79
2022/11/05 01:34:15;;;;;;;;;;;11.60;73.00;;;;;;4951480;29;19923;-79
2022/11/05 01:36:40;;;;;;;;;;;11.60;73.00;;;;;;4953036;29;20030;-79
2022/11/05 01:39:06;;;;;;;;;;;11.60;73.10;;;;;;4921360;29;20012;-80
2022/11/05 01:41:32;;;;;;;;;;;11.60;73.10;;;;;;4953882;28;19933;-79
2022/11/05 01:43:58;;;;;;;;;;;11.60;73.10;;;;;;4945882;29;19923;-79
2022/11/05 01:46:30;;;;;;;;;;;11.60;73.10;;;;;;4953629;28;19997;-79
2022/11/05 01:49:00;;;;;;;;;;;11.60;73.10;;;;;;4953736;29;20386;-80
2022/11/05 01:51:27;;;;;;;;;;;11.60;73.10;;;;;;4948631;28;19949;-80
2022/11/05 01:53:56;;;;;;;;;;;11.50;73.10;;;;;;4963912;28;19921;-79
2022/11/05 01:56:21;;;;;;;;;;;11.50;73.10;;;;;;4953109;28;20372;-79
2022/11/05 01:59:04;;;;;;;;;;;11.50;73.10;;;;;;4945755;29;19918;-79
2022/11/05 02:01:30;;;;;;;;;;;11.50;73.10;;;;;;4962263;28;19970;-79
2022/11/05 02:04:01;;;;;;;;;;;11.50;73.10;;;;;;4953318;29;19915;-79
2022/11/05 02:06:27;;;;;;;;;;;11.50;73.10;;;;;;4966034;28;19918;-79
2022/11/05 02:08:59;;;;;;;;;;;11.50;73.10;;;;;;4945752;28;19929;-79
2022/11/05 02:11:25;;;;;;;;;;;11.50;73.10;;;;;;4935540;28;19915;-81
2022/11/05 02:13:50;;;;;;;;;;;11.50;73.10;;;;;;4951928;29;20014;-79
2022/11/05 02:16:26;;;;;;;;;;;11.50;73.10;;;;;;4951549;28;19930;-79
2022/11/05 02:19:16;;;;;;;;;;;11.40;73.10;;;;;;4932220;29;19929;-79
2022/11/05 02:21:55;;;;;;;;;;;11.40;73.00;;;;;;4943944;29;19914;-79
2022/11/05 02:24:27;;;;;;;;;;;11.40;73.10;;;;;;4939766;28;19914;-80
2022/11/05 02:26:53;;;;;;;;;;;11.40;73.10;;;;;;4948867;29;19929;-79
2022/11/05 02:29:29;;;;;;;;;;;11.40;73.10;;;;;;4948755;28;19915;-81
2022/11/05 02:32:15;;;;;;;;;;;11.40;73.10;;;;;;4948150;29;20044;-79
2022/11/05 02:34:46;;;;;;;;;;;11.40;73.10;;;;;;4948875;28;19957;-79
2022/11/05 02:37:15;;;;;;;;;;;11.40;73.10;;;;;;4947769;28;19922;-79
2022/11/05 02:39:52;;;;;;;;;;;11.30;73.10;;;;;;4949642;29;19953;-79
2022/11/05 02:42:37;;;;;;;;;;;11.30;73.10;;;;;;4949178;29;19930;-80
2022/11/05 02:45:09;;;;;;;;;;;11.30;73.10;;;;;;4950553;29;20002;-79
2022/11/05 02:47:49;;;;;;;;;;;11.30;73.10;;;;;;4949542;28;20385;-79
2022/11/05 02:50:15;;;;;;;;;;;11.30;73.10;;;;;;4947774;29;19914;-79
2022/11/05 02:52:52;;;;;;;;;;;11.30;73.10;;;;;;4951986;29;19922;-79
2022/11/05 02:55:24;;;;;;;;;;;11.30;73.10;;;;;;4966968;28;20284;-80
2022/11/05 02:57:49;;;;;;;;;;;11.30;73.10;;;;;;4954221;28;19927;-79
2022/11/05 03:00:34;;;;;;;;;;;11.30;73.10;;;;;;4944706;29;19926;-79
2022/11/05 03:03:00;;;;;;;;;;;11.30;73.10;;;;;;4950794;28;19918;-79
2022/11/05 03:05:30;;;;;;;;;;;11.20;73.10;;;;;;4941546;29;20005;-79
2022/11/05 03:08:03;;;;;;;;;;;11.20;73.10;;;;;;4951416;28;19919;-79
2022/11/05 03:10:38;;;;;;;;;;;11.20;73.10;;;;;;4948914;29;20375;-79
2022/11/05 03:13:10;;;;;;;;;;;11.20;73.10;;;;;;4950092;29;19914;-79
2022/11/05 03:15:56;;;;;;;;;;;11.20;73.10;;;;;;4947120;28;19923;-81
2022/11/05 03:18:39;;;;;;;;;;;11.20;73.10;;;;;;4948525;28;20450;-79
2022/11/05 03:21:10;;;;;;;;;;;11.20;73.10;;;;;;4951289;28;19915;-79
2022/11/05 03:23:42;;;;;;;;;;;11.10;73.10;;;;;;4943576;29;19925;-79
2022/11/05 03:26:07;;;;;;;;;;;11.10;73.10;;;;;;4943317;29;19970;-80
2022/11/05 03:28:34;;;;;;;;;;;11.10;73.10;;;;;;4945771;28;19918;-79
2022/11/05 03:31:00;;;;;;;;;;;11.10;73.10;;;;;;4945888;29;19915;-80
2022/11/05 03:33:27;;;;;;;;;;;11.10;73.10;;;;;;4949703;29;20442;-79
2022/11/05 03:35:55;;;;;;;;;;;11.10;73.10;;;;;;4951587;28;19923;-81
2022/11/05 03:38:23;;;;;;;;;;;11.10;73.10;;;;;;4948809;28;19969;-79
2022/11/05 03:40:51;;;;;;;;;;;11.10;73.10;;;;;;4945567;28;20341;-79
2022/11/05 03:43:18;;;;;;;;;;;11.10;73.10;;;;;;4945427;28;19922;-80
2022/11/05 03:45:47;;;;;;;;;;;11.10;73.10;;;;;;4945126;29;19933;-79
2022/11/05 03:48:14;;;;;;;;;;;11.10;73.10;;;;;;4942495;28;19937;-78
2022/11/05 03:50:52;;;;;;;;;;;11.10;73.10;;;;;;4942276;28;20005;-79
2022/11/05 03:53:24;;;;;;;;;;;11.00;73.10;;;;;;4945401;29;19965;-80
2022/11/05 03:55:53;;;;;;;;;;;11.00;73.10;;;;;;4940589;29;19952;-79
2022/11/05 03:58:20;;;;;;;;;;;11.00;73.10;;;;;;4948697;29;19970;-79
2022/11/05 04:00:46;;;;;;;;;;;11.00;73.10;;;;;;4946838;29;19919;-80
2022/11/05 04:03:12;;;;;;;;;;;11.00;73.10;;;;;;4947336;28;19932;-78
2022/11/05 04:05:38;;;;;;;;;;;11.00;73.10;;;;;;4948661;28;19922;-79
2022/11/05 04:13:46;;;;;;;;;;;10.90;73.10;;;;;;4943056;29;19941;-79
2022/11/05 04:18:56;;;;;;;;;;;10.90;73.10;;;;;;4945706;29;19918;-79
2022/11/05 04:24:08;;;;;;;;;;;10.90;73.10;;;;;;4948238;29;19926;-79
2022/11/05 04:26:39;;;;;;;;;;;10.90;73.10;;;;;;4942627;28;19958;-79
2022/11/05 04:31:49;;;;;;;;;;;10.90;73.20;;;;;;4947761;28;19915;-80
2022/11/05 04:34:15;;;;;;;;;;;10.80;73.10;;;;;;4947478;29;20328;-79
2022/11/05 04:36:41;;;;;;;;;;;10.80;73.10;;;;;;4946263;28;20362;-78
2022/11/05 04:39:07;;;;;;;;;;;10.80;73.10;;;;;;4950272;29;19918;-81
2022/11/05 04:41:33;;;;;;;;;;;10.80;73.10;;;;;;4947915;28;19973;-79
2022/11/05 04:43:59;;;;;;;;;;;10.80;73.10;;;;;;4946799;28;20288;-79
2022/11/05 04:46:24;;;;;;;;;;;10.80;73.10;;;;;;4950084;28;19954;-79
2022/11/05 04:48:50;;;;;;;;;;;10.80;73.10;;;;;;4949070;28;19965;-79
2022/11/05 04:51:16;;;;;;;;;;;10.80;73.10;;;;;;4945174;29;19915;-78
2022/11/05 04:53:41;;;;;;;;;;;10.70;73.00;;;;;;4951484;28;20014;-82
2022/11/05 04:56:11;;;;;;;;;;;10.70;73.00;;;;;;4937083;28;20017;-79
2022/11/05 04:58:40;;;;;;;;;;;10.70;73.10;;;;;;4948619;29;19918;-79
2022/11/05 05:01:10;;;;;;;;;;;10.70;73.10;;;;;;4946331;28;20013;-79
2022/11/05 05:03:35;;;;;;;;;;;10.70;73.10;;;;;;4951134;28;20291;-79
2022/11/05 05:06:01;;;;;;;;;;;10.70;73.10;;;;;;4934343;29;19914;-80
2022/11/05 05:08:26;;;;;;;;;;;10.60;73.00;;;;;;4933749;29;19942;-79
2022/11/05 05:10:52;;;;;;;;;;;10.60;73.00;;;;;;4951885;29;20288;-79
2022/11/05 05:13:18;;;;;;;;;;;10.60;73.00;;;;;;4931417;29;19962;-79
2022/11/05 05:15:43;;;;;;;;;;;10.60;73.00;;;;;;4949234;29;19923;-80
2022/11/05 05:18:09;;;;;;;;;;;10.60;73.10;;;;;;4947635;28;20375;-79
2022/11/05 05:23:19;;;;;;;;;;;10.60;73.10;;;;;;4962399;28;20279;-79
2022/11/05 05:25:44;;;;;;;;;;;10.60;73.10;;;;;;4943074;29;19919;-78
2022/11/05 05:28:10;;;;;;;;;;;10.50;73.00;;;;;;4948808;29;19918;-80
2022/11/05 05:30:36;;;;;;;;;;;10.50;73.00;;;;;;4945180;29;20009;-79
2022/11/05 05:33:02;;;;;;;;;;;10.50;73.00;;;;;;4931772;29;19926;-79
2022/11/05 05:35:28;;;;;;;;;;;10.50;73.00;;;;;;4945083;28;20065;-79
2022/11/05 05:37:54;;;;;;;;;;;10.50;73.00;;;;;;4931160;29;20070;-80
2022/11/05 05:40:20;;;;;;;;;;;10.50;73.10;;;;;;4946055;29;19989;-79
2022/11/05 05:42:46;;;;;;;;;;;10.50;73.10;;;;;;4931588;29;20495;-79
2022/11/05 05:45:11;;;;;;;;;;;10.50;73.00;;;;;;4948323;29;20391;-81
2022/11/05 05:47:37;;;;;;;;;;;10.40;73.00;;;;;;4931876;29;20009;-79
2022/11/05 05:50:03;;;;;;;;;;;10.40;73.00;;;;;;4945233;28;19923;-79
2022/11/05 05:52:28;;;;;;;;;;;10.40;73.00;;;;;;4948514;29;19922;-80
2022/11/05 05:54:54;;;;;;;;;;;10.40;73.10;;;;;;4949108;28;20390;-79
2022/11/05 05:57:20;;;;;;;;;;;10.40;73.00;;;;;;4954528;28;19925;-79
2022/11/05 05:59:45;;;;;;;;;;;10.40;73.10;;;;;;4950128;28;20364;-79
2022/11/05 06:02:11;;;;;;;;;;;10.40;73.00;;;;;;4947456;28;20359;-80
2022/11/05 06:04:37;;;;;;;;;;;10.40;73.00;;;;;;4929098;29;19982;-79
2022/11/05 06:07:02;;;;;;;;;;;10.40;73.00;;;;;;4946675;29;19922;-78
2022/11/05 06:09:28;;;;;;;;;;;10.30;73.00;;;;;;4967389;28;20283;-78
2022/11/05 06:11:54;;;;;;;;;;;10.30;73.00;;;;;;4935219;29;20319;-79
2022/11/05 06:14:19;;;;;;;;;;;10.30;73.00;;;;;;4948950;29;19914;-79
2022/11/05 06:16:45;;;;;;;;;;;10.30;73.00;;;;;;4932877;29;20384;-79
2022/11/05 06:19:10;;;;;;;;;;;10.30;73.00;;;;;;4934613;29;19918;-78
2022/11/05 06:21:36;;;;;;;;;;;10.30;73.00;;;;;;4947755;28;19918;-81
2022/11/05 06:24:02;;;;;;;;;;;10.30;73.10;;;;;;4949411;29;19923;-79
2022/11/05 06:26:28;;;;;;;;;;;10.30;73.10;;;;;;4945288;28;20359;-79
2022/11/05 06:28:53;;;;;;;;;;;10.30;73.10;;;;;;4950990;28;19922;-79
2022/11/05 06:31:19;;;;;;;;;;;10.30;73.10;;;;;;4946342;29;20010;-79
2022/11/05 06:33:46;;;;;;;;;;;10.30;73.10;;;;;;4949642;28;20367;-79
2022/11/05 06:36:16;;;;;;;;;;;10.20;73.10;;;;;;4948113;29;20323;-79
2022/11/05 06:38:42;;;;;;;;;;;10.30;73.10;;;;;;4950955;28;19921;-80
2022/11/05 06:41:07;;;;;;;;;;;10.30;73.10;;;;;;4949542;28;20320;-79
2022/11/05 06:43:33;;;;;;;;;;;10.20;73.10;;;;;;4936041;29;20361;-79
2022/11/05 06:46:00;;;;;;;;;;;10.30;73.10;;;;;;4947303;28;20009;-80
2022/11/05 06:48:25;;;;;;;;;;;10.20;73.10;;;;;;4948632;29;20386;-80
2022/11/05 06:50:51;;;;;;;;;;;10.20;73.10;;;;;;4949514;29;19915;-81
2022/11/05 06:53:17;;;;;;;;;;;10.20;73.70;;;;;;4934431;29;19919;-81
2022/11/05 06:55:43;;;;;;;;;;;10.20;73.10;;;;;;4951363;28;20648;-79
2022/11/05 06:58:09;;;;;;;;;;;10.20;73.10;;;;;;4949721;28;19918;-79
2022/11/05 07:00:35;;;;;;;;;;;10.20;73.20;;;;;;4937413;28;19988;-79
2022/11/05 07:03:04;;;;;;;;;;;10.20;73.20;;;;;;4953214;28;20355;-79
2022/11/05 07:05:30;;;;;;;;;;;10.20;73.10;;;;;;4950771;29;20014;-80
2022/11/05 07:07:56;;;;;;;;;;;10.20;73.10;;;;;;4950098;29;19929;-80
2022/11/05 07:10:21;;;;;;;;;;;10.20;73.10;;;;;;4946070;29;19937;-79
2022/11/05 07:12:47;;;;;;;;;;;10.20;73.10;;;;;;4935549;29;19919;-79
2022/11/05 07:15:12;;;;;;;;;;;10.20;73.10;;;;;;4951000;28;19930;-79
2022/11/05 07:17:38;;;;;;;;;;;10.10;73.10;;;;;;4946791;29;19934;-79
2022/11/05 07:20:05;;;;;;;;;;;10.20;73.20;;;;;;4935473;29;19995;-79
2022/11/05 07:22:31;;;;;;;;;;;10.10;73.10;;;;;;4951772;28;19937;-79
2022/11/05 07:24:57;;;;;;;;;;;10.10;73.20;;;;;;4936262;29;20348;-80
2022/11/05 07:27:22;;;;;;;;;;;10.10;73.20;;;;;;4934687;29;20379;-79
2022/11/05 07:29:48;;;;;;;;;;;10.10;73.10;;;;;;4953374;28;19915;-80
2022/11/05 07:32:13;;;;;;;;;;;10.10;73.10;;;;;;4950669;28;20410;-80
2022/11/05 07:34:39;;;;;;;;;;;10.10;73.10;;;;;;4936972;29;20041;-79
2022/11/05 07:37:05;;;;;;;;;;;10.10;73.10;;;;;;4947410;28;19926;-79
2022/11/05 07:39:31;;;;;;;;;;;10.10;73.10;;;;;;4952770;28;19922;-79
2022/11/05 07:41:59;;;;;;;;;;;10.10;73.20;;;;;;4952847;28;19941;-78
2022/11/05 07:44:31;;;;;;;;;;;10.10;73.20;;;;;;4947329;28;19918;-79
2022/11/05 07:46:57;;;;;;;;;;;10.10;73.20;;;;;;4932937;29;20017;-79
2022/11/05 07:49:22;;;;;;;;;;;10.10;73.20;;;;;;4922271;29;19914;-79
2022/11/05 07:51:48;;;;;;;;;;;10.10;73.20;;;;;;4943182;28;19974;-80
2022/11/05 07:54:13;;;;;;;;;;;10.10;73.20;;;;;;4934909;29;19915;-79
2022/11/05 07:56:39;;;;;;;;;;;10.00;73.20;;;;;;4953059;28;20336;-79
2022/11/05 07:59:05;;;;;;;;;;;10.10;73.20;;;;;;4934202;29;19915;-80
2022/11/05 08:01:30;;;;;;;;;;;10.10;73.20;;;;;;4946004;28;19966;-79
2022/11/05 08:03:56;;;;;;;;;;;10.10;73.20;;;;;;4949232;28;19914;-79
2022/11/05 08:06:22;;;;;;;;;;;10.00;73.20;;;;;;4952344;29;19933;-80
2022/11/05 08:08:47;;;;;;;;;;;10.10;73.20;;;;;;4952782;28;19917;-79
2022/11/05 08:11:13;;;;;;;;;;;10.10;73.30;;;;;;4949872;28;19926;-78
2022/11/05 08:13:39;;;;;;;;;;;10.10;73.30;;;;;;4931935;29;20419;-80
2022/11/05 08:16:04;;;;;;;;;;;10.10;73.30;;;;;;4944666;28;19927;-79
2022/11/05 08:18:30;;;;;;;;;;;10.10;73.30;;;;;;4934075;28;20342;-79
2022/11/05 08:21:03;;;;;;;;;;;10.00;73.20;;;;;;4949991;29;19918;-79
2022/11/05 08:23:29;;;;;;;;;;;10.10;73.30;;;;;;4931217;29;19927;-78
2022/11/05 08:25:55;;;;;;;;;;;10.10;73.30;;;;;;4945981;29;20381;-79
2022/11/05 08:28:21;;;;;;;;;;;10.10;73.30;;;;;;4940783;29;19925;-79
2022/11/05 08:30:48;;;;;;;;;;;10.10;73.30;;;;;;4928797;29;20461;-79
2022/11/05 08:33:13;;;;;;;;;;;10.10;73.30;;;;;;4917644;29;19954;-80
2022/11/05 08:35:39;;;;;;;;;;;10.10;73.40;;;;;;4944966;28;19986;-79
2022/11/05 08:38:05;;;;;;;;;;;10.10;73.30;;;;;;4948719;29;20001;-79
2022/11/05 08:40:32;;;;;;;;;;;10.10;73.40;;;;;;4948903;28;19954;-79
2022/11/05 08:42:59;;;;;;;;;;;10.10;73.40;;;;;;4950281;29;19937;-80
2022/11/05 08:45:25;;;;;;;;;;;10.10;73.40;;;;;;4944859;28;19974;-80
2022/11/05 08:47:57;;;;;;;;;;;10.10;73.40;;;;;;4934516;28;20006;-78
2022/11/05 08:50:22;;;;;;;;;;;10.10;73.40;;;;;;4951292;28;19926;-79
2022/11/05 08:52:48;;;;;;;;;;;10.10;73.40;;;;;;4944279;28;20284;-79
2022/11/05 08:55:17;;;;;;;;;;;10.10;73.40;;;;;;4934420;29;19933;-79
2022/11/05 08:57:44;;;;;;;;;;;10.10;73.40;;;;;;4947475;29;19918;-80
2022/11/05 09:00:11;;;;;;;;;;;10.20;73.40;;;;;;4941313;29;19945;-79
2022/11/05 09:02:36;;;;;;;;;;;10.20;73.40;;;;;;4947101;28;19919;-80
2022/11/05 09:05:02;;;;;;;;;;;10.20;73.40;;;;;;4929599;29;19930;-80
2022/11/05 09:07:27;;;;;;;;;;;10.20;73.40;;;;;;4947454;29;19922;-79
2022/11/05 09:09:53;;;;;;;;;;;10.20;73.40;;;;;;4946134;29;19919;-78
2022/11/05 09:12:19;;;;;;;;;;;10.20;73.40;;;;;;4944949;28;19919;-79
2022/11/05 09:14:44;;;;;;;;;;;10.20;73.50;;;;;;4934280;29;19962;-80
2022/11/05 09:17:14;;;;;;;;;;;10.20;73.50;;;;;;4934665;28;19919;-79
2022/11/05 09:19:40;;;;;;;;;;;10.30;73.50;;;;;;4966236;28;19922;-80
2022/11/05 09:22:05;;;;;;;;;;;10.30;73.50;;;;;;4934327;29;19918;-79
2022/11/05 09:24:31;;;;;;;;;;;10.30;73.50;;;;;;4935502;29;19958;-79
2022/11/05 09:26:56;;;;;;;;;;;10.40;73.60;;;;;;4953695;28;19921;-79
2022/11/05 09:29:22;;;;;;;;;;;10.40;73.60;;;;;;4939672;29;20366;-79
2022/11/05 09:31:48;;;;;;;;;;;10.40;73.60;;;;;;4953768;28;20375;-79
2022/11/05 09:34:13;;;;;;;;;;;10.50;73.60;;;;;;4942676;29;19925;-79
2022/11/05 09:36:39;;;;;;;;;;;10.50;73.60;;;;;;4954453;28;19947;-81
2022/11/05 09:39:05;;;;;;;;;;;10.50;73.60;;;;;;4950760;29;20389;-80
2022/11/05 09:41:33;;;;;;;;;;;10.50;73.60;;;;;;4939039;28;19996;-80
2022/11/05 09:44:10;;;;;;;;;;;10.50;73.60;;;;;;4939083;29;20371;-80
2022/11/05 09:47:05;;;;;;;;;;;10.60;73.70;;;;;;4951014;28;19915;-80
2022/11/05 09:49:38;;;;;;;;;;;10.60;73.70;;;;;;4944626;29;19918;-80
2022/11/05 09:52:08;;;;;;;;;;;10.60;73.60;;;;;;4935419;28;19915;-80
2022/11/05 09:54:34;;;;;;;;;;;10.70;73.70;;;;;;4952887;28;19965;-81
2022/11/05 09:57:01;;;;;;;;;;;10.70;73.70;;;;;;4951895;28;19923;-80
2022/11/05 09:59:40;;;;;;;;;;;10.80;73.80;;;;;;4954817;28;19921;-80
2022/11/05 10:02:16;;;;;;;;;;;10.80;73.80;;;;;;4954001;28;19919;-80
2022/11/05 10:04:43;;;;;;;;;;;10.80;73.80;;;;;;4939081;29;19915;-79
2022/11/05 10:07:12;;;;;;;;;;;10.80;73.80;;;;;;4967710;28;20419;-81
2022/11/05 10:09:44;;;;;;;;;;;10.90;73.90;;;;;;4956582;28;19914;-80
2022/11/05 10:12:17;;;;;;;;;;;10.90;73.90;;;;;;4951302;28;19914;-80
2022/11/05 10:14:47;;;;;;;;;;;10.90;73.90;;;;;;4952063;29;19914;-80
2022/11/05 10:17:21;;;;;;;;;;;10.90;73.90;;;;;;4950257;29;20520;-80
2022/11/05 10:19:46;;;;;;;;;;;10.90;73.90;;;;;;4947768;29;19921;-80
2022/11/05 10:22:17;;;;;;;;;;;11.00;74.00;;;;;;4948846;29;20002;-80
2022/11/05 10:24:45;;;;;;;;;;;11.00;74.00;;;;;;4948241;28;20414;-80
2022/11/05 10:27:16;;;;;;;;;;;11.10;74.10;;;;;;4949575;28;20009;-80
2022/11/05 10:29:42;;;;;;;;;;;11.10;74.10;;;;;;4952855;28;19922;-80
2022/11/05 10:32:10;;;;;;;;;;;11.10;74.10;;;;;;4953023;28;19911;-80
2022/11/05 10:34:37;;;;;;;;;;;11.10;74.10;;;;;;4951185;28;19942;-80
2022/11/05 10:37:03;;;;;;;;;;;11.10;74.10;;;;;;4938545;29;19950;-81
2022/11/05 10:39:29;;;;;;;;;;;11.20;74.10;;;;;;4951850;28;19919;-80
2022/11/05 10:41:57;;;;;;;;;;;11.20;74.10;;;;;;4950886;28;21317;-80
2022/11/05 10:44:41;;;;;;;;;;;11.20;74.10;;;;;;4950910;29;19915;-81
2022/11/05 10:47:15;;;;;;;;;;;11.20;74.10;;;;;;4951795;28;19922;-80
2022/11/05 10:49:52;;;;;;;;;;;11.20;74.10;;;;;;4934994;29;19915;-82
2022/11/05 10:52:23;;;;;;;;;;;11.30;74.20;;;;;;4949479;28;19914;-80
2022/11/05 10:54:50;;;;;;;;;;;11.30;74.20;;;;;;4948409;29;19918;-80
2022/11/05 10:57:30;;;;;;;;;;;11.30;74.20;;;;;;4969343;28;19910;-81
2022/11/05 11:00:17;;;;;;;;;;;11.40;74.20;;;;;;4949754;28;20236;-81
2022/11/05 11:02:44;;;;;;;;;;;11.40;74.20;;;;;;4937931;28;19922;-80
2022/11/05 11:05:16;;;;;;;;;;;11.40;74.20;;;;;;4946134;29;19918;-80
2022/11/05 11:07:42;;;;;;;;;;;11.40;74.20;;;;;;4951278;28;19921;-81
2022/11/05 11:10:17;;;;;;;;;;;11.50;74.30;;;;;;4941180;29;20268;-80
2022/11/05 11:12:43;;;;;;;;;;;11.50;74.30;;;;;;4950519;29;19922;-80
2022/11/05 11:15:22;;;;;;;;;;;11.50;74.30;;;;;;4949580;29;19930;-82
2022/11/05 11:17:47;;;;;;;;;;;11.50;74.30;;;;;;4968172;28;19921;-81
2022/11/05 11:20:24;;;;;;;;;;;11.60;74.30;;;;;;4942076;28;19914;-80
2022/11/05 11:22:56;;;;;;;;;;;11.60;74.30;;;;;;4952098;29;19915;-80
2022/11/05 11:25:27;;;;;;;;;;;11.60;74.30;;;;;;4953238;28;19921;-83
2022/11/05 11:27:53;;;;;;;;;;;11.70;74.40;;;;;;4951642;29;20356;-81
2022/11/05 11:30:19;;;;;;;;;;;11.70;74.30;;;;;;4941748;28;19922;-78
2022/11/05 11:32:46;;;;;;;;;;;11.80;74.40;;;;;;4950762;28;20410;-81
2022/11/05 11:35:20;;;;;;;;;;;11.80;74.40;;;;;;4953104;28;20418;-80
2022/11/05 11:37:46;;;;;;;;;;;11.80;74.30;;;;;;4944433;28;19915;-80
2022/11/05 11:40:20;;;;;;;;;;;11.80;74.40;;;;;;4950339;28;20004;-81
2022/11/05 11:42:48;;;;;;;;;;;11.80;74.40;;;;;;4933255;29;19922;-81
2022/11/05 11:45:16;;;;;;;;;;;11.90;74.40;;;;;;4945128;29;19919;-81
2022/11/05 11:47:43;;;;;;;;;;;11.90;74.40;;;;;;4951908;28;20248;-82
2022/11/05 11:50:29;;;;;;;;;;;12.00;74.50;;;;;;4947336;28;19921;-81
2022/11/05 11:52:54;;;;;;;;;;;12.00;74.50;;;;;;4950707;28;19963;-81
2022/11/05 11:55:20;;;;;;;;;;;12.00;74.40;;;;;;4938818;28;19957;-81
2022/11/05 11:58:02;;;;;;;;;;;12.00;74.40;;;;;;4952342;28;20360;-81
2022/11/05 12:00:30;;;;;;;;;;;12.10;74.50;;;;;;4934620;28;19996;-81
2022/11/05 12:03:14;;;;;;;;;;;12.10;74.60;;;;;;4950066;28;19964;-81
2022/11/05 12:05:40;;;;;;;;;;;12.10;74.60;;;;;;4949220;28;20442;-80
2022/11/05 12:08:11;;;;;;;;;;;12.20;74.60;;;;;;4951208;28;19941;-81
2022/11/05 12:11:06;;;;;;;;;;;12.20;74.60;;;;;;4947909;29;19929;-80
2022/11/05 12:13:39;;;;;;;;;;;12.20;74.60;;;;;;4937242;29;19915;-81
2022/11/05 12:16:05;;;;;;;;;;;12.20;74.60;;;;;;4948650;28;19977;-81
2022/11/05 12:18:40;;;;;;;;;;;12.30;74.60;;;;;;4934309;29;19966;-81
2022/11/05 12:21:09;;;;;;;;;;;12.30;74.60;;;;;;4951179;28;20009;-81
2022/11/05 12:23:55;;;;;;;;;;;12.40;74.70;;;;;;4949507;28;20475;-81
2022/11/05 12:26:39;;;;;;;;;;;12.40;74.70;;;;;;4947999;28;19915;-81
2022/11/05 12:29:20;;;;;;;;;;;12.40;74.70;;;;;;4946910;28;19915;-81
2022/11/05 12:31:50;;;;;;;;;;;12.40;74.70;;;;;;4945742;28;19914;-81
2022/11/05 12:34:22;;;;;;;;;;;12.50;74.70;;;;;;4943787;28;19923;-79
2022/11/05 12:36:57;;;;;;;;;;;12.50;74.70;;;;;;4949405;28;19974;-81
2022/11/05 12:39:42;;;;;;;;;;;12.50;74.70;;;;;;4943085;29;19922;-80
2022/11/05 12:42:17;;;;;;;;;;;12.50;74.70;;;;;;4940491;29;19927;-80
2022/11/05 12:44:50;;;;;;;;;;;12.60;74.80;;;;;;4957740;28;19921;-81
2022/11/05 12:47:16;;;;;;;;;;;12.60;74.80;;;;;;4951505;28;19993;-82
2022/11/05 12:50:00;;;;;;;;;;;12.60;74.70;;;;;;4951150;28;19917;-82
2022/11/05 12:52:45;;;;;;;;;;;12.60;74.80;;;;;;4934617;29;20004;-81
2022/11/05 12:55:16;;;;;;;;;;;12.70;74.80;;;;;;4950663;28;19956;-81
2022/11/05 12:57:44;;;;;;;;;;;12.70;74.80;;;;;;4950183;28;19958;-81
2022/11/05 13:00:23;;;;;;;;;;;12.70;74.80;;;;;;4949574;28;19925;-81
2022/11/05 13:02:55;;;;;;;;;;;12.80;74.90;;;;;;4951383;29;19926;-81
2022/11/05 13:05:27;;;;;;;;;;;12.80;74.80;;;;;;4950958;28;19914;-81
2022/11/05 13:07:58;;;;;;;;;;;12.80;74.80;;;;;;4945718;29;19919;-81
2022/11/05 13:10:33;;;;;;;;;;;12.80;74.80;;;;;;4948918;28;19918;-81
2022/11/05 13:13:17;;;;;;;;;;;12.80;74.80;;;;;;4950202;28;20056;-81
2022/11/05 13:15:58;;;;;;;;;;;12.90;74.80;;;;;;4946645;29;19923;-81
2022/11/05 13:18:41;;;;;;;;;;;12.90;74.80;;;;;;4954211;28;19914;-81
2022/11/05 13:21:07;;;;;;;;;;;12.90;74.80;;;;;;4951907;29;19970;-81
2022/11/05 13:23:32;;;;;;;;;;;13.00;74.90;;;;;;4920042;29;19921;-81
2022/11/05 13:26:01;;;;;;;;;;;13.00;74.80;;;;;;4951961;29;20009;-82
2022/11/05 13:28:56;;;;;;;;;;;13.00;74.80;;;;;;4948741;28;20348;-81
2022/11/05 13:31:26;;;;;;;;;;;13.10;74.90;;;;;;4942497;29;19915;-81
2022/11/05 13:33:52;;;;;;;;;;;13.00;74.80;;;;;;4951231;28;19946;-81
2022/11/05 13:39:05;;;;;;;;;;;13.10;74.80;;;;;;4949235;29;19919;-80
2022/11/05 13:41:46;;;;;;;;;;;13.10;74.80;;;;;;4949749;29;20009;-82
2022/11/05 13:44:26;;;;;;;;;;;13.10;74.80;;;;;;4944163;28;19958;-82
2022/11/05 13:47:11;;;;;;;;;;;13.20;74.80;;;;;;4948483;28;19915;-81
2022/11/05 13:49:43;;;;;;;;;;;13.20;74.80;;;;;;4928118;29;19915;-81
2022/11/05 13:52:38;;;;;;;;;;;13.20;74.80;;;;;;4947975;28;20043;-82
2022/11/05 13:55:22;;;;;;;;;;;13.20;74.80;;;;;;4939073;28;19914;-82
2022/11/05 13:58:06;;;;;;;;;;;13.30;74.80;;;;;;4949040;28;19954;-82
2022/11/05 14:00:37;;;;;;;;;;;13.30;74.80;;;;;;4951102;28;19922;-82
2022/11/05 14:03:05;;;;;;;;;;;13.30;74.80;;;;;;4950016;28;20268;-81
2022/11/05 14:05:38;;;;;;;;;;;13.30;74.80;;;;;;4948670;28;19923;-80
2022/11/05 14:08:17;;;;;;;;;;;13.30;74.80;;;;;;4950949;29;19970;-82
2022/11/05 14:11:00;;;;;;;;;;;13.40;74.80;;;;;;4933917;29;19915;-82
2022/11/05 14:13:30;;;;;;;;;;;13.40;74.80;;;;;;4937226;28;20301;-82
2022/11/05 14:15:59;;;;;;;;;;;13.40;74.80;;;;;;4949631;29;20385;-82
2022/11/05 14:18:37;;;;;;;;;;;13.40;74.80;;;;;;4954126;28;19919;-82
2022/11/05 14:21:03;;;;;;;;;;;13.50;74.80;;;;;;4956253;28;19922;-82
2022/11/05 14:23:29;;;;;;;;;;;13.50;74.80;;;;;;4953377;28;20013;-83
2022/11/05 14:25:56;;;;;;;;;;;13.40;74.80;;;;;;4952800;28;20348;-87
2022/11/05 14:28:34;;;;;;;;;;;13.50;74.80;;;;;;4955064;29;19938;-89
2022/11/05 14:31:00;;;;;;;;;;;13.50;74.70;;;;;;4935600;29;19954;-83
2022/11/05 14:33:26;;;;;;;;;;;13.60;74.70;;;;;;4950126;29;19923;-85
2022/11/05 14:35:53;;;;;;;;;;;13.60;74.70;;;;;;4956147;28;19922;-88
2022/11/05 14:38:25;;;;;;;;;;;13.60;74.70;;;;;;4937778;29;19985;-84
2022/11/05 14:40:59;;;;;;;;;;;13.60;74.70;;;;;;4951748;28;20407;-80
2022/11/05 14:43:26;;;;;;;;;;;13.60;74.60;;;;;;4952914;29;20013;-82
2022/11/05 14:45:57;;;;;;;;;;;13.60;74.60;;;;;;4933113;28;19915;-82
2022/11/05 14:48:46;;;;;;;;;;;13.60;74.60;;;;;;4948814;29;19914;-82
2022/11/05 14:51:24;;;;;;;;;;;13.60;74.60;;;;;;4924788;29;19921;-81
2022/11/05 14:53:56;;;;;;;;;;;13.70;74.60;;;;;;4948481;28;19969;-83
2022/11/05 14:56:22;;;;;;;;;;;13.70;74.60;;;;;;4947214;29;19922;-81
2022/11/05 14:58:48;;;;;;;;;;;13.70;74.50;;;;;;4920742;29;19926;-82
2022/11/05 15:01:13;;;;;;;;;;;13.70;74.50;;;;;;4940433;29;19977;-83
2022/11/05 15:03:39;;;;;;;;;;;13.70;74.50;;;;;;4950084;29;19914;-82
2022/11/05 15:06:04;;;;;;;;;;;13.70;74.40;;;;;;4945982;28;19918;-82
2022/11/05 15:08:50;;;;;;;;;;;13.70;74.50;;;;;;4947846;29;20352;-82
2022/11/05 15:11:27;;;;;;;;;;;13.80;74.50;;;;;;4933507;29;20342;-83